createdAt,value
2022-09-15T00:01:03.520Z,16.90
2022-09-15T00:03:31.329Z,16.70
2022-09-15T00:05:59.110Z,16.80
2022-09-15T00:08:26.938Z,16.90
2022-09-15T00:10:55.656Z,16.90
2022-09-15T00:13:23.870Z,17.00
2022-09-15T00:15:53.095Z,17.00
2022-09-15T00:18:21.452Z,16.90
2022-09-15T00:20:49.273Z,16.90
2022-09-15T00:23:17.367Z,16.90
2022-09-15T00:25:45.911Z,17.10
2022-09-15T00:28:13.908Z,17.00
2022-09-15T00:30:42.967Z,17.00
2022-09-15T00:33:12.241Z,17.10
2022-09-15T00:35:40.383Z,17.10
2022-09-15T00:38:08.360Z,17.10
2022-09-15T00:40:43.547Z,16.90
2022-09-15T00:43:11.977Z,16.90
2022-09-15T00:45:39.890Z,17.00
2022-09-15T00:48:08.213Z,17.00
2022-09-15T00:50:37.402Z,17.00
2022-09-15T00:53:05.980Z,17.00
2022-09-15T00:55:35.869Z,17.00
2022-09-15T00:58:05.054Z,16.90
2022-09-15T01:00:32.937Z,16.80
2022-09-15T01:03:00.780Z,16.80
2022-09-15T01:05:30.969Z,16.90
2022-09-15T01:08:01.684Z,17.00
2022-09-15T01:10:31.191Z,17.00
2022-09-15T01:13:07.106Z,17.00
2022-09-15T01:15:39.621Z,17.00
2022-09-15T01:18:13.894Z,17.00
2022-09-15T01:21:11.036Z,16.90
2022-09-15T01:24:10.017Z,17.00
2022-09-15T01:27:38.164Z,17.00
2022-09-15T01:30:09.543Z,16.80
2022-09-15T01:33:00.651Z,16.90
2022-09-15T01:35:33.753Z,16.90
2022-09-15T01:38:04.478Z,16.90
2022-09-15T01:40:34.314Z,17.00
2022-09-15T01:43:02.233Z,16.90
2022-09-15T01:45:33.319Z,17.00
2022-09-15T01:48:01.393Z,17.00
2022-09-15T01:50:31.149Z,17.00
2022-09-15T01:53:00.621Z,17.00
2022-09-15T01:55:32.638Z,17.00
2022-09-15T01:58:00.497Z,16.90
2022-09-15T02:00:28.450Z,17.00
2022-09-15T02:02:59.466Z,17.00
2022-09-15T02:05:30.322Z,16.90
2022-09-15T02:08:02.118Z,16.90
2022-09-15T02:10:32.717Z,16.90
2022-09-15T02:13:03.128Z,16.90
2022-09-15T02:15:34.482Z,16.90
2022-09-15T02:18:05.026Z,16.80
2022-09-15T02:20:35.203Z,16.80
2022-09-15T02:23:05.613Z,16.80
2022-09-15T02:25:34.743Z,16.70
2022-09-15T02:28:05.613Z,16.70
2022-09-15T02:30:33.547Z,16.60
2022-09-15T02:33:04.122Z,16.70
2022-09-15T02:35:31.970Z,16.70
2022-09-15T02:37:59.835Z,16.70
2022-09-15T02:40:27.805Z,16.80
2022-09-15T02:42:56.698Z,16.80
2022-09-15T02:45:24.734Z,16.80
2022-09-15T02:47:52.629Z,16.70
2022-09-15T02:50:21.878Z,16.70
2022-09-15T02:52:49.740Z,16.80
2022-09-15T02:55:17.666Z,16.70
2022-09-15T02:57:45.651Z,16.70
2022-09-15T03:00:16.317Z,16.60
2022-09-15T03:02:45.498Z,16.70
2022-09-15T03:05:14.392Z,16.80
2022-09-15T03:07:44.882Z,16.90
2022-09-15T03:10:43.811Z,16.90
2022-09-15T03:13:11.790Z,16.90
2022-09-15T03:15:39.620Z,16.90
2022-09-15T03:18:07.486Z,16.80
2022-09-15T03:20:35.334Z,16.70
2022-09-15T03:23:04.497Z,16.70
2022-09-15T03:25:32.974Z,16.80
2022-09-15T03:28:00.793Z,16.70
2022-09-15T03:30:28.597Z,16.60
2022-09-15T03:32:56.409Z,16.60
2022-09-15T03:35:24.198Z,16.70
2022-09-15T03:37:51.994Z,16.60
2022-09-15T03:40:21.194Z,16.60
2022-09-15T03:42:49.258Z,16.60
2022-09-15T03:45:17.178Z,16.60
2022-09-15T03:47:45.072Z,16.80
2022-09-15T03:50:12.860Z,16.70
2022-09-15T03:52:40.678Z,16.70
2022-09-15T03:55:09.234Z,16.70
2022-09-15T03:57:38.398Z,16.60
2022-09-15T04:00:07.974Z,16.60
2022-09-15T04:02:35.859Z,16.60
2022-09-15T04:05:03.721Z,16.70
2022-09-15T04:07:31.599Z,16.60
2022-09-15T04:09:59.423Z,16.50
2022-09-15T04:12:27.234Z,16.40
2022-09-15T04:14:56.405Z,16.50
2022-09-15T04:17:24.235Z,16.50
2022-09-15T04:19:52.061Z,16.40
2022-09-15T04:22:19.949Z,16.60
2022-09-15T04:24:48.083Z,16.50
2022-09-15T04:27:15.954Z,16.30
2022-09-15T04:29:43.990Z,16.50
2022-09-15T04:32:13.192Z,16.60
2022-09-15T04:34:41.582Z,16.60
2022-09-15T04:37:09.534Z,16.50
2022-09-15T04:39:37.409Z,16.50
2022-09-15T04:42:07.017Z,16.40
2022-09-15T04:44:34.816Z,16.30
2022-09-15T04:47:02.752Z,16.40
2022-09-15T04:49:31.916Z,16.20
2022-09-15T04:51:59.725Z,16.20
2022-09-15T04:54:27.688Z,16.30
2022-09-15T04:56:55.510Z,16.30
2022-09-15T04:59:23.348Z,16.30
2022-09-15T05:01:51.293Z,16.30
2022-09-15T05:04:19.150Z,16.30
2022-09-15T05:06:48.284Z,16.30
2022-09-15T05:09:16.136Z,16.40
2022-09-15T05:11:44.063Z,16.40
2022-09-15T05:14:12.010Z,16.50
2022-09-15T05:16:40.562Z,16.40
2022-09-15T05:19:08.406Z,16.40
2022-09-15T05:21:36.251Z,16.30
2022-09-15T05:24:05.700Z,16.40
2022-09-15T05:26:33.686Z,16.30
2022-09-15T05:29:01.510Z,16.40
2022-09-15T05:31:31.264Z,16.40
2022-09-15T05:34:00.903Z,16.40
2022-09-15T05:36:28.914Z,16.50
2022-09-15T05:38:57.478Z,16.40
2022-09-15T05:41:27.162Z,16.40
2022-09-15T05:43:56.811Z,16.40
2022-09-15T05:46:26.106Z,16.40
2022-09-15T05:48:54.997Z,16.30
2022-09-15T05:51:23.005Z,16.40
2022-09-15T05:53:51.081Z,16.30
2022-09-15T05:56:19.114Z,16.40
2022-09-15T05:58:49.092Z,16.60
2022-09-15T06:01:18.303Z,16.40
2022-09-15T06:03:46.724Z,16.40
2022-09-15T06:06:14.544Z,16.40
2022-09-15T06:08:44.464Z,16.50
2022-09-15T06:11:13.134Z,16.40
2022-09-15T06:13:41.264Z,16.40
2022-09-15T06:16:11.235Z,16.40
2022-09-15T06:18:39.818Z,16.40
2022-09-15T06:21:08.916Z,16.50
2022-09-15T06:23:37.093Z,16.60
2022-09-15T06:26:06.773Z,16.60
2022-09-15T06:28:34.636Z,16.50
2022-09-15T06:31:02.513Z,16.60
2022-09-15T06:33:31.714Z,16.90
2022-09-15T06:36:02.477Z,17.10
2022-09-15T06:38:30.812Z,16.80
2022-09-15T06:40:58.877Z,16.70
2022-09-15T06:43:26.933Z,16.80
2022-09-15T06:45:54.801Z,16.90
2022-09-15T06:48:25.243Z,16.90
2022-09-15T06:50:57.400Z,16.80
2022-09-15T06:53:25.241Z,16.80
2022-09-15T06:55:53.048Z,16.80
2022-09-15T06:58:20.993Z,16.90
2022-09-15T07:00:49.286Z,16.90
2022-09-15T07:03:17.284Z,16.90
2022-09-15T07:05:46.381Z,16.90
2022-09-15T07:08:15.621Z,16.90
2022-09-15T07:10:45.154Z,17.20
2022-09-15T07:13:13.210Z,17.20
2022-09-15T07:15:41.111Z,17.30
2022-09-15T07:18:09.013Z,17.20
2022-09-15T07:20:39.216Z,17.20
2022-09-15T07:23:07.036Z,17.30
2022-09-15T07:25:36.231Z,17.40
2022-09-15T07:28:04.438Z,17.30
2022-09-15T07:30:32.313Z,17.40
2022-09-15T07:33:00.195Z,17.10
2022-09-15T07:35:28.034Z,17.30
2022-09-15T07:37:55.960Z,17.40
2022-09-15T07:40:23.965Z,17.40
2022-09-15T07:42:53.250Z,17.40
2022-09-15T07:45:21.107Z,17.60
2022-09-15T07:47:49.277Z,18.20
2022-09-15T07:50:17.200Z,18.20
2022-09-15T07:52:45.054Z,18.40
2022-09-15T07:55:13.094Z,18.30
2022-09-15T07:57:40.924Z,18.50
2022-09-15T08:00:11.422Z,18.40
2022-09-15T08:02:39.510Z,18.40
2022-09-15T08:05:08.265Z,18.50
2022-09-15T08:07:36.095Z,18.80
2022-09-15T08:10:03.986Z,19.50
2022-09-15T08:12:31.909Z,19.60
2022-09-15T08:14:59.702Z,19.70
2022-09-15T08:17:28.933Z,19.70
2022-09-15T08:19:56.814Z,19.60
2022-09-15T08:22:25.012Z,19.50
2022-09-15T08:24:52.821Z,19.60
2022-09-15T08:27:20.658Z,19.50
2022-09-15T08:29:49.216Z,19.30
2022-09-15T08:32:17.067Z,19.40
2022-09-15T08:34:46.284Z,19.30
2022-09-15T08:37:14.159Z,19.20
2022-09-15T08:39:42.167Z,19.20
2022-09-15T08:42:10.943Z,19.30
2022-09-15T08:44:42.129Z,19.20
2022-09-15T08:47:13.655Z,19.20
2022-09-15T08:49:51.501Z,19.00
2022-09-15T08:52:23.273Z,19.00
2022-09-15T08:54:51.626Z,19.10
2022-09-15T08:57:20.990Z,19.00
2022-09-15T08:59:48.806Z,18.90
2022-09-15T09:02:34.918Z,18.80
2022-09-15T09:05:05.374Z,18.70
2022-09-15T09:07:44.392Z,18.70
2022-09-15T09:10:13.748Z,18.70
2022-09-15T09:12:51.485Z,18.70
2022-09-15T09:15:25.462Z,18.70
2022-09-15T09:18:07.462Z,18.70
2022-09-15T09:20:42.619Z,18.70
2022-09-15T09:23:13.907Z,18.80
2022-09-15T09:25:41.809Z,18.90
2022-09-15T09:28:31.590Z,19.00
2022-09-15T09:31:02.544Z,19.20
2022-09-15T09:33:32.551Z,19.30
2022-09-15T09:36:01.237Z,19.80
2022-09-15T09:38:32.713Z,20.10
2022-09-15T09:41:02.510Z,20.40
2022-09-15T09:43:30.829Z,20.60
2022-09-15T09:45:59.247Z,20.50
2022-09-15T09:48:27.614Z,20.40
2022-09-15T09:50:55.758Z,20.40
2022-09-15T09:53:28.601Z,20.20
2022-09-15T09:56:16.814Z,20.10
2022-09-15T09:58:44.899Z,20.20
2022-09-15T10:01:13.713Z,20.10
2022-09-15T10:03:41.883Z,20.10
2022-09-15T10:06:13.252Z,19.90
2022-09-15T10:08:54.164Z,19.80
2022-09-15T10:11:23.509Z,19.70
2022-09-15T10:13:52.442Z,19.50
2022-09-15T10:16:20.367Z,19.40
2022-09-15T10:18:54.010Z,19.30
2022-09-15T10:21:23.758Z,19.20
2022-09-15T10:23:51.971Z,18.90
2022-09-15T10:26:23.872Z,18.80
2022-09-15T10:29:12.480Z,18.60
2022-09-15T10:31:40.644Z,18.60
2022-09-15T10:34:31.555Z,18.60
2022-09-15T10:37:21.478Z,18.60
2022-09-15T10:39:53.020Z,18.60
2022-09-15T10:42:29.995Z,18.50
2022-09-15T10:45:05.169Z,18.60
2022-09-15T10:47:37.530Z,18.50
2022-09-15T10:50:10.219Z,18.50
2022-09-15T10:52:49.166Z,18.50
2022-09-15T10:55:48.464Z,18.50
2022-09-15T10:58:30.218Z,18.60
2022-09-15T11:01:03.083Z,18.40
2022-09-15T11:03:56.648Z,18.40
2022-09-15T11:06:25.780Z,18.40
2022-09-15T11:09:05.960Z,18.50
2022-09-15T11:11:40.150Z,18.50
2022-09-15T11:14:19.537Z,18.50
2022-09-15T11:16:55.104Z,18.60
2022-09-15T11:19:34.180Z,18.70
2022-09-15T11:22:03.233Z,18.70
2022-09-15T11:24:36.103Z,18.90
2022-09-15T11:27:06.371Z,19.10
2022-09-15T11:29:37.797Z,19.10
2022-09-15T11:32:07.507Z,19.00
2022-09-15T11:34:36.720Z,19.00
2022-09-15T11:37:07.205Z,19.00
2022-09-15T11:39:37.281Z,19.00
2022-09-15T11:42:07.535Z,19.00
2022-09-15T11:44:37.691Z,19.00
2022-09-15T11:47:23.808Z,19.00
2022-09-15T11:49:53.302Z,19.10
2022-09-15T11:52:40.760Z,19.10
2022-09-15T11:55:14.926Z,19.00
2022-09-15T11:57:45.900Z,19.00
2022-09-15T12:00:15.570Z,19.10
2022-09-15T12:02:45.230Z,19.10
2022-09-15T12:05:15.045Z,19.10
2022-09-15T12:07:44.961Z,19.10
2022-09-15T12:10:18.621Z,19.30
2022-09-15T12:12:46.476Z,19.30
2022-09-15T12:15:18.051Z,19.30
2022-09-15T12:17:49.054Z,19.30
2022-09-15T12:20:19.580Z,19.40
2022-09-15T12:22:49.841Z,19.40
2022-09-15T12:25:19.870Z,19.40
2022-09-15T12:28:20.254Z,19.40
2022-09-15T12:30:49.633Z,19.40
2022-09-15T12:33:45.574Z,19.50
2022-09-15T12:36:51.238Z,19.50
2022-09-15T12:39:30.052Z,19.50
2022-09-15T12:42:05.412Z,19.40
2022-09-15T12:44:35.175Z,19.40
2022-09-15T12:47:05.638Z,19.40
2022-09-15T12:49:35.117Z,19.40
2022-09-15T12:52:05.442Z,19.40
2022-09-15T12:54:34.272Z,19.40
2022-09-15T12:57:02.166Z,19.40
2022-09-15T12:59:30.364Z,19.40
2022-09-15T13:01:58.964Z,19.50
2022-09-15T13:04:55.729Z,19.50
2022-09-15T13:07:34.667Z,19.60
2022-09-15T13:10:21.990Z,19.70
2022-09-15T13:12:52.657Z,19.60
2022-09-15T13:15:20.657Z,19.70
2022-09-15T13:17:48.505Z,19.80
2022-09-15T13:20:24.766Z,19.90
2022-09-15T13:22:53.427Z,19.90
2022-09-15T13:25:23.700Z,19.90
2022-09-15T13:27:53.686Z,19.80
2022-09-15T13:30:31.902Z,19.80
2022-09-15T13:33:02.709Z,19.90
2022-09-15T13:35:57.684Z,19.90
2022-09-15T13:38:52.937Z,19.80
2022-09-15T13:41:28.208Z,19.70
2022-09-15T13:44:12.747Z,19.60
2022-09-15T13:46:46.203Z,19.60
2022-09-15T13:49:26.161Z,19.50
2022-09-15T13:51:59.522Z,19.70
2022-09-15T13:54:27.400Z,19.60
2022-09-15T13:56:56.310Z,19.70
2022-09-15T13:59:25.851Z,19.70
2022-09-15T14:01:54.423Z,19.90
2022-09-15T14:04:23.222Z,20.30
2022-09-15T14:06:52.197Z,20.80
2022-09-15T14:09:22.786Z,21.10
2022-09-15T14:11:52.865Z,21.50
2022-09-15T14:14:33.226Z,21.60
2022-09-15T14:17:01.179Z,21.60
2022-09-15T14:19:33.716Z,21.50
2022-09-15T14:22:02.130Z,21.70
2022-09-15T14:24:31.861Z,21.70
2022-09-15T14:27:08.661Z,21.60
2022-09-15T14:29:40.086Z,22.00
2022-09-15T14:32:08.029Z,21.80
2022-09-15T14:34:36.923Z,21.40
2022-09-15T14:37:06.174Z,20.90
2022-09-15T14:39:37.637Z,20.80
2022-09-15T14:42:21.234Z,20.70
2022-09-15T14:47:39.048Z,20.40
2022-09-15T14:50:07.404Z,20.10
2022-09-15T14:52:38.972Z,20.00
2022-09-15T14:55:13.070Z,19.90
2022-09-15T14:57:41.061Z,19.90
2022-09-15T15:00:10.529Z,19.70
2022-09-15T15:02:48.914Z,19.80
2022-09-15T15:05:18.790Z,19.80
2022-09-15T15:07:46.642Z,19.60
2022-09-15T15:10:17.616Z,19.50
2022-09-15T15:12:46.483Z,19.40
2022-09-15T15:15:14.955Z,19.30
2022-09-15T15:17:44.190Z,19.40
2022-09-15T15:20:17.715Z,19.50
2022-09-15T15:22:45.822Z,19.50
2022-09-15T15:25:28.793Z,19.40
2022-09-15T15:27:56.945Z,19.50
2022-09-15T15:30:45.274Z,19.50
2022-09-15T15:33:25.314Z,19.40
2022-09-15T15:36:04.128Z,19.20
2022-09-15T15:38:35.104Z,19.10
2022-09-15T15:41:05.468Z,19.10
2022-09-15T15:43:34.341Z,19.10
2022-09-15T15:46:03.506Z,19.00
2022-09-15T15:48:37.398Z,19.10
2022-09-15T15:51:06.477Z,19.00
2022-09-15T15:53:34.578Z,19.00
2022-09-15T15:56:04.032Z,19.00
2022-09-15T15:58:32.048Z,19.00
2022-09-15T16:01:00.305Z,18.90
2022-09-15T16:03:28.609Z,19.00
2022-09-15T16:05:58.697Z,18.90
2022-09-15T16:08:28.908Z,18.80
2022-09-15T16:10:56.851Z,18.80
2022-09-15T16:13:26.223Z,18.80
2022-09-15T16:15:54.451Z,18.70
2022-09-15T16:18:22.473Z,18.60
2022-09-15T16:20:50.426Z,18.60
2022-09-15T16:23:22.646Z,18.60
2022-09-15T16:25:58.961Z,18.50
2022-09-15T16:28:28.714Z,18.50
2022-09-15T16:30:57.517Z,18.50
2022-09-15T16:33:25.913Z,18.30
2022-09-15T16:35:55.191Z,18.30
2022-09-15T16:38:26.019Z,18.40
2022-09-15T16:40:54.003Z,18.30
2022-09-15T16:43:22.718Z,18.30
2022-09-15T16:45:52.258Z,18.30
2022-09-15T16:48:20.231Z,18.30
2022-09-15T16:53:36.582Z,18.30
2022-09-15T16:56:04.554Z,18.20
2022-09-15T16:58:32.458Z,18.10
2022-09-15T17:01:01.748Z,17.90
2022-09-15T17:03:29.651Z,17.80
2022-09-15T17:05:58.797Z,17.80
2022-09-15T17:08:29.314Z,17.80
2022-09-15T17:10:57.674Z,17.80
2022-09-15T17:13:29.535Z,17.70
2022-09-15T17:15:58.586Z,17.60
2022-09-15T17:18:28.106Z,17.60
2022-09-15T17:20:56.488Z,17.70
2022-09-15T17:23:25.246Z,17.70
2022-09-15T17:25:54.369Z,17.70
2022-09-15T17:28:22.811Z,17.50
2022-09-15T17:30:51.540Z,17.60
2022-09-15T17:33:20.128Z,17.60
2022-09-15T17:35:49.479Z,17.20
2022-09-15T17:38:20.168Z,16.90
2022-09-15T17:40:48.677Z,16.90
2022-09-15T17:43:17.529Z,16.80
2022-09-15T17:45:45.450Z,16.50
2022-09-15T17:48:13.314Z,16.50
2022-09-15T17:50:41.879Z,16.60
2022-09-15T17:53:13.797Z,16.40
2022-09-15T17:55:41.701Z,16.10
2022-09-15T17:58:09.678Z,16.30
2022-09-15T18:00:38.461Z,16.10
2022-09-15T18:03:18.484Z,16.00
2022-09-15T18:05:46.483Z,16.00
2022-09-15T18:08:16.484Z,16.00
2022-09-15T18:10:44.598Z,15.90
2022-09-15T18:13:14.715Z,16.00
2022-09-15T18:15:42.930Z,16.10
2022-09-15T18:18:14.020Z,16.00
2022-09-15T18:20:42.097Z,16.00
2022-09-15T18:23:13.151Z,15.70
2022-09-15T18:25:42.708Z,15.50
2022-09-15T18:28:10.615Z,15.60
2022-09-15T18:30:40.611Z,15.60
2022-09-15T18:33:08.885Z,15.60
2022-09-15T18:35:36.715Z,15.50
2022-09-15T18:38:05.366Z,15.50
2022-09-15T18:40:33.291Z,15.50
2022-09-15T18:43:02.571Z,15.60
2022-09-15T18:45:30.575Z,15.60
2022-09-15T18:47:58.456Z,15.70
2022-09-15T18:50:26.576Z,15.90
2022-09-15T18:52:54.835Z,15.90
2022-09-15T18:55:23.138Z,15.90
2022-09-15T18:57:50.998Z,15.80
2022-09-15T19:00:21.193Z,15.60
2022-09-15T19:02:49.098Z,15.50
2022-09-15T19:05:17.268Z,15.40
2022-09-15T19:07:45.305Z,15.30
2022-09-15T19:10:13.540Z,15.40
2022-09-15T19:12:41.462Z,15.30
2022-09-15T19:15:11.543Z,15.40
2022-09-15T19:17:41.129Z,15.20
2022-09-15T19:20:09.911Z,15.30
2022-09-15T19:22:38.049Z,15.30
2022-09-15T19:25:06.715Z,15.10
2022-09-15T19:27:34.615Z,15.30
2022-09-15T19:30:02.522Z,15.10
2022-09-15T19:32:30.462Z,15.00
2022-09-15T19:34:59.719Z,15.00
2022-09-15T19:37:27.624Z,15.00
2022-09-15T19:39:55.800Z,14.90
2022-09-15T19:42:23.675Z,15.00
2022-09-15T19:44:51.564Z,15.10
2022-09-15T19:47:19.432Z,15.20
2022-09-15T19:49:47.488Z,15.20
2022-09-15T19:52:16.699Z,15.20
2022-09-15T19:54:44.572Z,15.20
2022-09-15T19:57:12.449Z,15.10
2022-09-15T19:59:40.355Z,15.10
2022-09-15T20:02:08.300Z,15.20
2022-09-15T20:04:36.167Z,15.20
2022-09-15T20:07:04.097Z,15.20
2022-09-15T20:09:33.424Z,15.20
2022-09-15T20:12:03.150Z,15.20
2022-09-15T20:14:31.237Z,15.20
2022-09-15T20:17:01.193Z,15.20
2022-09-15T20:19:29.847Z,15.60
2022-09-15T20:21:58.062Z,15.70
2022-09-15T20:24:25.975Z,15.60
2022-09-15T20:26:55.298Z,15.50
2022-09-15T20:29:23.794Z,15.40
2022-09-15T20:31:51.716Z,15.10
2022-09-15T20:34:19.586Z,15.20
2022-09-15T20:36:47.488Z,15.30
2022-09-15T20:39:15.878Z,15.10
2022-09-15T20:41:44.959Z,15.20
2022-09-15T20:44:14.348Z,15.30
2022-09-15T20:46:42.249Z,15.20
2022-09-15T20:49:10.157Z,15.10
2022-09-15T20:51:38.135Z,15.20
2022-09-15T20:54:06.153Z,15.30
2022-09-15T20:56:35.101Z,15.10
2022-09-15T20:59:03.260Z,15.20
2022-09-15T21:01:34.170Z,15.00
2022-09-15T21:04:02.453Z,15.10
2022-09-15T21:06:30.377Z,15.20
2022-09-15T21:08:58.583Z,15.00
2022-09-15T21:11:27.486Z,15.40
2022-09-15T21:13:55.521Z,15.50
2022-09-15T21:16:24.286Z,15.50
2022-09-15T21:18:53.782Z,15.20
2022-09-15T21:21:22.336Z,15.00
2022-09-15T21:23:50.902Z,14.90
2022-09-15T21:26:19.369Z,14.90
2022-09-15T21:28:47.262Z,14.80
2022-09-15T21:31:15.928Z,14.80
2022-09-15T21:33:44.402Z,14.80
2022-09-15T21:36:14.761Z,14.90
2022-09-15T21:38:44.011Z,14.90
2022-09-15T21:41:13.676Z,15.00
2022-09-15T21:43:42.357Z,15.00
2022-09-15T21:46:13.493Z,14.90
2022-09-15T21:48:41.591Z,14.70
2022-09-15T21:51:09.628Z,14.70
2022-09-15T21:53:38.853Z,14.90
2022-09-15T21:56:08.474Z,14.90
2022-09-15T21:58:42.466Z,14.90
2022-09-15T22:01:12.424Z,14.90
2022-09-15T22:03:42.241Z,15.10
2022-09-15T22:06:11.141Z,15.10
2022-09-15T22:08:40.514Z,15.00
2022-09-15T22:11:08.741Z,15.10
2022-09-15T22:13:37.606Z,15.10
2022-09-15T22:16:06.692Z,14.80
2022-09-15T22:18:36.738Z,14.50
2022-09-15T22:21:05.942Z,14.70
2022-09-15T22:23:33.975Z,14.50
2022-09-15T22:26:04.016Z,14.30
2022-09-15T22:28:32.326Z,14.20
2022-09-15T22:31:00.826Z,14.30
2022-09-15T22:33:28.695Z,14.30
2022-09-15T22:35:56.941Z,14.30
2022-09-15T22:38:24.969Z,14.30
2022-09-15T22:40:53.222Z,14.10
2022-09-15T22:43:22.719Z,14.10
2022-09-15T22:45:50.689Z,14.00
2022-09-15T22:48:18.639Z,14.10
2022-09-15T22:50:46.480Z,14.00
2022-09-15T22:53:14.361Z,14.00
2022-09-15T22:55:42.286Z,13.90
2022-09-15T22:58:10.826Z,13.50
2022-09-15T23:00:40.287Z,13.60
2022-09-15T23:03:08.343Z,13.60
2022-09-15T23:05:36.205Z,13.60
2022-09-15T23:08:04.361Z,13.60
2022-09-15T23:10:33.322Z,13.60
2022-09-15T23:13:01.495Z,13.40
2022-09-15T23:15:30.253Z,13.40
2022-09-15T23:17:59.558Z,13.40
2022-09-15T23:20:27.653Z,13.60
2022-09-15T23:22:55.902Z,13.50
2022-09-15T23:25:23.826Z,13.50
2022-09-15T23:27:51.801Z,13.40
2022-09-15T23:30:19.683Z,13.30
2022-09-15T23:32:47.636Z,13.40
2022-09-15T23:35:17.034Z,13.50
2022-09-15T23:37:45.081Z,13.60
2022-09-15T23:40:12.995Z,13.60
2022-09-15T23:42:40.865Z,13.70
2022-09-15T23:45:09.178Z,13.60
2022-09-15T23:47:37.023Z,13.60
2022-09-15T23:50:05.408Z,13.80
2022-09-15T23:52:34.579Z,13.50
2022-09-15T23:55:02.739Z,13.40
2022-09-15T23:57:30.552Z,13.50
2022-09-15T23:59:58.384Z,13.50
